sensor_id;sensor_type;location;lat;lon;timestamp;pressure;altitude;pressure_sealevel;temperature;humidity
20017;BME280;10169;42.664;23.610;2023-05-25T00:01:24;95243.06;;;13.36;100.00
20017;BME280;10169;42.664;23.610;2023-05-25T00:03:25;95257.00;;;13.43;100.00
20017;BME280;10169;42.664;23.610;2023-05-25T00:05:26;95251.66;;;13.43;100.00
20017;BME280;10169;42.664;23.610;2023-05-25T00:07:27;95255.63;;;13.41;100.00
20017;BME280;10169;42.664;23.610;2023-05-25T00:09:27;95250.03;;;13.37;100.00
20017;BME280;10169;42.664;23.610;2023-05-25T00:11:28;95249.16;;;13.32;100.00
20017;BME280;10169;42.664;23.610;2023-05-25T00:13:28;95253.47;;;13.33;100.00
20017;BME280;10169;42.664;23.610;2023-05-25T00:15:29;95250.78;;;13.33;100.00
20017;BME280;10169;42.664;23.610;2023-05-25T00:17:29;95250.78;;;13.33;100.00
20017;BME280;10169;42.664;23.610;2023-05-25T00:19:30;95254.50;;;13.32;100.00
20017;BME280;10169;42.664;23.610;2023-05-25T00:21:31;95251.28;;;13.25;100.00
20017;BME280;10169;42.664;23.610;2023-05-25T00:23:33;95251.47;;;13.18;100.00
20017;BME280;10169;42.664;23.610;2023-05-25T00:25:33;95255.22;;;13.17;100.00
20017;BME280;10169;42.664;23.610;2023-05-25T00:27:33;95263.00;;;13.24;100.00
20017;BME280;10169;42.664;23.610;2023-05-25T00:29:34;95266.53;;;13.34;100.00
20017;BME280;10169;42.664;23.610;2023-05-25T00:31:34;95262.13;;;13.55;100.00
20017;BME280;10169;42.664;23.610;2023-05-25T00:33:35;95264.81;;;13.55;100.00
20017;BME280;10169;42.664;23.610;2023-05-25T00:35:35;95260.22;;;13.45;100.00
20017;BME280;10169;42.664;23.610;2023-05-25T00:37:36;95258.00;;;13.32;100.00
20017;BME280;10169;42.664;23.610;2023-05-25T00:39:36;95265.41;;;13.25;100.00
20017;BME280;10169;42.664;23.610;2023-05-25T00:41:37;95255.22;;;13.17;100.00
20017;BME280;10169;42.664;23.610;2023-05-25T00:43:40;95260.25;;;13.14;100.00
20017;BME280;10169;42.664;23.610;2023-05-25T00:45:40;95258.41;;;13.14;100.00
20017;BME280;10169;42.664;23.610;2023-05-25T00:47:41;95262.81;;;13.35;100.00
20017;BME280;10169;42.664;23.610;2023-05-25T00:49:42;95262.81;;;13.35;100.00
20017;BME280;10169;42.664;23.610;2023-05-25T00:51:42;95258.72;;;13.18;100.00
20017;BME280;10169;42.664;23.610;2023-05-25T00:53:45;95258.94;;;13.11;100.00
20017;BME280;10169;42.664;23.610;2023-05-25T00:55:49;95259.63;;;13.01;100.00
20017;BME280;10169;42.664;23.610;2023-05-25T00:57:52;95260.47;;;13.07;100.00
20017;BME280;10169;42.664;23.610;2023-05-25T00:59:54;95268.94;;;12.99;100.00
20017;BME280;10169;42.664;23.610;2023-05-25T01:01:56;95267.03;;;12.94;100.00
20017;BME280;10169;42.664;23.610;2023-05-25T01:03:58;95251.47;;;12.81;100.00
20017;BME280;10169;42.664;23.610;2023-05-25T01:05:59;95266.97;;;12.84;100.00
20017;BME280;10169;42.664;23.610;2023-05-25T01:08:01;95267.47;;;12.81;100.00
20017;BME280;10169;42.664;23.610;2023-05-25T01:10:05;95278.63;;;12.78;100.00
20017;BME280;10169;42.664;23.610;2023-05-25T01:12:07;95270.00;;;12.66;100.00
20017;BME280;10169;42.664;23.610;2023-05-25T01:14:08;95293.03;;;12.77;100.00
20017;BME280;10169;42.664;23.610;2023-05-25T01:16:09;95282.84;;;12.74;100.00
20017;BME280;10169;42.664;23.610;2023-05-25T01:18:09;95290.81;;;12.69;100.00
20017;BME280;10169;42.664;23.610;2023-05-25T01:20:14;95291.81;;;12.63;100.00
20017;BME280;10169;42.664;23.610;2023-05-25T01:22:18;95286.19;;;12.60;100.00
20017;BME280;10169;42.664;23.610;2023-05-25T01:24:26;95287.31;;;12.64;100.00
20017;BME280;10169;42.664;23.610;2023-05-25T01:26:31;95287.53;;;12.62;100.00
20017;BME280;10169;42.664;23.610;2023-05-25T01:28:40;95284.09;;;12.62;100.00
20017;BME280;10169;42.664;23.610;2023-05-25T01:30:44;95287.50;;;12.57;100.00
20017;BME280;10169;42.664;23.610;2023-05-25T01:32:45;95285.03;;;12.51;100.00
20017;BME280;10169;42.664;23.610;2023-05-25T01:34:45;95286.28;;;12.43;100.00
20017;BME280;10169;42.664;23.610;2023-05-25T01:36:47;95280.09;;;12.37;100.00
20017;BME280;10169;42.664;23.610;2023-05-25T01:38:48;95279.53;;;12.35;100.00
20017;BME280;10169;42.664;23.610;2023-05-25T01:40:48;95288.59;;;12.34;100.00
20017;BME280;10169;42.664;23.610;2023-05-25T01:42:48;95286.97;;;12.33;100.00
20017;BME280;10169;42.664;23.610;2023-05-25T01:44:49;95280.06;;;12.32;100.00
20017;BME280;10169;42.664;23.610;2023-05-25T01:46:51;95292.81;;;12.30;100.00
20017;BME280;10169;42.664;23.610;2023-05-25T01:49:00;95283.47;;;12.28;100.00
20017;BME280;10169;42.664;23.610;2023-05-25T01:51:08;95282.09;;;12.25;100.00
20017;BME280;10169;42.664;23.610;2023-05-25T01:53:09;95290.91;;;12.26;100.00
20017;BME280;10169;42.664;23.610;2023-05-25T01:55:14;95293.13;;;12.34;100.00
20017;BME280;10169;42.664;23.610;2023-05-25T01:57:15;95292.84;;;12.35;100.00
20017;BME280;10169;42.664;23.610;2023-05-25T01:59:18;95295.53;;;12.35;100.00
20017;BME280;10169;42.664;23.610;2023-05-25T02:01:19;95289.84;;;12.27;100.00
20017;BME280;10169;42.664;23.610;2023-05-25T02:03:19;95301.56;;;12.26;100.00
20017;BME280;10169;42.664;23.610;2023-05-25T02:05:20;95290.78;;;12.16;100.00
20017;BME280;10169;42.664;23.610;2023-05-25T02:07:21;95291.47;;;12.06;100.00
20017;BME280;10169;42.664;23.610;2023-05-25T02:09:22;95289.88;;;12.05;100.00
20017;BME280;10169;42.664;23.610;2023-05-25T02:11:22;95294.38;;;12.05;100.00
20017;BME280;10169;42.664;23.610;2023-05-25T02:13:22;95293.38;;;12.11;100.00
20017;BME280;10169;42.664;23.610;2023-05-25T02:15:22;95301.59;;;12.31;100.00
20017;BME280;10169;42.664;23.610;2023-05-25T02:17:23;95301.63;;;12.09;100.00
20017;BME280;10169;42.664;23.610;2023-05-25T02:19:27;95298.59;;;12.01;100.00
20017;BME280;10169;42.664;23.610;2023-05-25T02:21:28;95295.38;;;11.99;100.00
20017;BME280;10169;42.664;23.610;2023-05-25T02:23:28;95301.44;;;11.94;100.00
20017;BME280;10169;42.664;23.610;2023-05-25T02:25:29;95290.44;;;11.86;100.00
20017;BME280;10169;42.664;23.610;2023-05-25T02:27:29;95300.13;;;11.75;100.00
20017;BME280;10169;42.664;23.610;2023-05-25T02:29:29;95295.94;;;11.62;100.00
20017;BME280;10169;42.664;23.610;2023-05-25T02:31:30;95300.97;;;11.42;100.00
20017;BME280;10169;42.664;23.610;2023-05-25T02:33:30;95303.09;;;11.40;100.00
20017;BME280;10169;42.664;23.610;2023-05-25T02:35:31;95301.78;;;11.43;100.00
20017;BME280;10169;42.664;23.610;2023-05-25T02:37:31;95307.84;;;11.38;100.00
20017;BME280;10169;42.664;23.610;2023-05-25T02:39:31;95310.34;;;11.28;100.00
20017;BME280;10169;42.664;23.610;2023-05-25T02:41:31;95315.53;;;11.18;100.00
20017;BME280;10169;42.664;23.610;2023-05-25T02:43:32;95323.25;;;11.20;100.00
20017;BME280;10169;42.664;23.610;2023-05-25T02:45:32;95328.00;;;11.18;100.00
20017;BME280;10169;42.664;23.610;2023-05-25T02:47:32;95328.00;;;11.18;100.00
20017;BME280;10169;42.664;23.610;2023-05-25T02:49:33;95335.44;;;11.16;100.00
20017;BME280;10169;42.664;23.610;2023-05-25T02:51:33;95334.88;;;11.14;100.00
20017;BME280;10169;42.664;23.610;2023-05-25T02:53:33;95339.28;;;11.08;100.00
20017;BME280;10169;42.664;23.610;2023-05-25T02:55:34;95335.75;;;11.03;100.00
20017;BME280;10169;42.664;23.610;2023-05-25T02:57:34;95348.56;;;11.06;100.00
20017;BME280;10169;42.664;23.610;2023-05-25T02:59:36;95342.72;;;10.92;100.00
20017;BME280;10169;42.664;23.610;2023-05-25T03:01:36;95339.59;;;10.95;100.00
20017;BME280;10169;42.664;23.610;2023-05-25T03:03:36;95348.88;;;10.92;100.00
20017;BME280;10169;42.664;23.610;2023-05-25T03:05:37;95347.00;;;10.93;100.00
20017;BME280;10169;42.664;23.610;2023-05-25T03:07:37;95344.59;;;10.91;100.00
20017;BME280;10169;42.664;23.610;2023-05-25T03:09:38;95347.72;;;10.88;100.00
20017;BME280;10169;42.664;23.610;2023-05-25T03:11:38;95350.31;;;10.83;100.00
20017;BME280;10169;42.664;23.610;2023-05-25T03:13:38;95351.59;;;10.81;100.00
20017;BME280;10169;42.664;23.610;2023-05-25T03:15:38;95354.81;;;10.83;100.00
20017;BME280;10169;42.664;23.610;2023-05-25T03:17:39;95360.38;;;10.81;100.00
20017;BME280;10169;42.664;23.610;2023-05-25T03:19:39;95360.22;;;10.88;100.00
20017;BME280;10169;42.664;23.610;2023-05-25T03:21:40;95361.28;;;10.87;100.00
20017;BME280;10169;42.664;23.610;2023-05-25T03:23:40;95359.91;;;10.84;100.00
20017;BME280;10169;42.664;23.610;2023-05-25T03:25:40;95367.16;;;10.89;100.00
20017;BME280;10169;42.664;23.610;2023-05-25T03:27:41;95364.25;;;10.90;100.00
20017;BME280;10169;42.664;23.610;2023-05-25T03:29:41;95361.91;;;10.94;100.00
20017;BME280;10169;42.664;23.610;2023-05-25T03:31:41;95369.97;;;10.99;100.00
20017;BME280;10169;42.664;23.610;2023-05-25T03:33:41;95371.34;;;11.02;100.00
20017;BME280;10169;42.664;23.610;2023-05-25T03:35:42;95368.38;;;10.98;100.00
20017;BME280;10169;42.664;23.610;2023-05-25T03:37:42;95369.97;;;10.99;100.00
20017;BME280;10169;42.664;23.610;2023-05-25T03:39:42;95365.22;;;11.01;100.00
20017;BME280;10169;42.664;23.610;2023-05-25T03:41:42;95364.28;;;11.07;100.00
20017;BME280;10169;42.664;23.610;2023-05-25T03:43:43;95370.38;;;11.08;100.00
20017;BME280;10169;42.664;23.610;2023-05-25T03:45:43;95372.09;;;11.14;100.00
20017;BME280;10169;42.664;23.610;2023-05-25T03:47:43;95381.31;;;11.23;100.00
20017;BME280;10169;42.664;23.610;2023-05-25T03:49:44;95381.34;;;11.28;100.00
20017;BME280;10169;42.664;23.610;2023-05-25T03:51:44;95376.94;;;11.33;100.00
20017;BME280;10169;42.664;23.610;2023-05-25T03:53:45;95385.00;;;11.38;100.00
20017;BME280;10169;42.664;23.610;2023-05-25T03:55:45;95385.66;;;11.45;100.00
20017;BME280;10169;42.664;23.610;2023-05-25T03:57:45;95377.72;;;11.50;100.00
20017;BME280;10169;42.664;23.610;2023-05-25T03:59:46;95386.94;;;11.43;100.00
20017;BME280;10169;42.664;23.610;2023-05-25T04:01:46;95380.47;;;11.55;100.00
20017;BME280;10169;42.664;23.610;2023-05-25T04:03:46;95382.72;;;11.63;100.00
20017;BME280;10169;42.664;23.610;2023-05-25T04:05:47;95379.56;;;11.66;100.00
20017;BME280;10169;42.664;23.610;2023-05-25T04:07:47;95383.38;;;11.71;100.00
20017;BME280;10169;42.664;23.610;2023-05-25T04:09:47;95378.06;;;11.71;100.00
20017;BME280;10169;42.664;23.610;2023-05-25T04:11:48;95382.44;;;11.77;100.00
20017;BME280;10169;42.664;23.610;2023-05-25T04:13:48;95378.53;;;11.84;100.00
20017;BME280;10169;42.664;23.610;2023-05-25T04:15:49;95386.16;;;11.97;100.00
20017;BME280;10169;42.664;23.610;2023-05-25T04:17:49;95391.38;;;12.09;100.00
20017;BME280;10169;42.664;23.610;2023-05-25T04:19:50;95387.50;;;12.16;100.00
20017;BME280;10169;42.664;23.610;2023-05-25T04:21:50;95388.78;;;12.35;100.00
20017;BME280;10169;42.664;23.610;2023-05-25T04:23:51;95387.50;;;12.38;100.00
20017;BME280;10169;42.664;23.610;2023-05-25T04:25:51;95390.50;;;12.42;100.00
20017;BME280;10169;42.664;23.610;2023-05-25T04:27:52;95389.00;;;12.51;100.00
20017;BME280;10169;42.664;23.610;2023-05-25T04:29:55;95391.78;;;12.61;100.00
20017;BME280;10169;42.664;23.610;2023-05-25T04:31:56;95384.66;;;12.66;100.00
20017;BME280;10169;42.664;23.610;2023-05-25T04:33:56;95397.47;;;12.69;100.00
20017;BME280;10169;42.664;23.610;2023-05-25T04:35:58;95396.09;;;12.67;100.00
20017;BME280;10169;42.664;23.610;2023-05-25T04:37:58;95397.72;;;12.94;100.00
20017;BME280;10169;42.664;23.610;2023-05-25T04:40:01;95402.69;;;13.07;100.00
20017;BME280;10169;42.664;23.610;2023-05-25T04:42:07;95393.50;;;13.25;100.00
20017;BME280;10169;42.664;23.610;2023-05-25T04:44:07;95393.91;;;13.39;100.00
20017;BME280;10169;42.664;23.610;2023-05-25T04:46:07;95380.53;;;13.70;100.00
20017;BME280;10169;42.664;23.610;2023-05-25T04:48:07;95385.97;;;13.86;100.00
20017;BME280;10169;42.664;23.610;2023-05-25T04:50:09;95383.53;;;13.79;100.00
20017;BME280;10169;42.664;23.610;2023-05-25T04:52:09;95389.63;;;13.69;100.00
20017;BME280;10169;42.664;23.610;2023-05-25T04:54:10;95387.00;;;13.79;100.00
20017;BME280;10169;42.664;23.610;2023-05-25T04:56:10;95387.13;;;14.00;100.00
20017;BME280;10169;42.664;23.610;2023-05-25T04:58:10;95393.09;;;14.17;100.00
20017;BME280;10169;42.664;23.610;2023-05-25T05:00:12;95381.75;;;14.36;100.00
20017;BME280;10169;42.664;23.610;2023-05-25T05:02:14;95386.19;;;14.83;100.00
20017;BME280;10169;42.664;23.610;2023-05-25T05:04:14;95376.59;;;14.97;100.00
20017;BME280;10169;42.664;23.610;2023-05-25T05:06:15;95381.91;;;14.87;100.00
20017;BME280;10169;42.664;23.610;2023-05-25T05:08:16;95377.41;;;15.07;100.00
20017;BME280;10169;42.664;23.610;2023-05-25T05:10:17;95374.50;;;15.39;100.00
20017;BME280;10169;42.664;23.610;2023-05-25T05:12:17;95371.84;;;15.54;100.00
20017;BME280;10169;42.664;23.610;2023-05-25T05:14:17;95367.56;;;15.63;100.00
20017;BME280;10169;42.664;23.610;2023-05-25T05:16:18;95372.09;;;15.83;100.00
20017;BME280;10169;42.664;23.610;2023-05-25T05:18:18;95352.56;;;15.82;100.00
20017;BME280;10169;42.664;23.610;2023-05-25T05:20:19;95369.13;;;16.00;100.00
20017;BME280;10169;42.664;23.610;2023-05-25T05:22:19;95371.25;;;16.18;100.00
20017;BME280;10169;42.664;23.610;2023-05-25T05:24:19;95364.50;;;16.25;100.00
20017;BME280;10169;42.664;23.610;2023-05-25T05:26:20;95373.06;;;16.32;100.00
20017;BME280;10169;42.664;23.610;2023-05-25T05:28:22;95371.00;;;16.04;100.00
20017;BME280;10169;42.664;23.610;2023-05-25T05:30:26;95377.72;;;16.02;100.00
20017;BME280;10169;42.664;23.610;2023-05-25T05:32:26;95375.31;;;15.95;100.00
20017;BME280;10169;42.664;23.610;2023-05-25T05:34:26;95376.09;;;16.01;100.00
20017;BME280;10169;42.664;23.610;2023-05-25T05:36:27;95379.81;;;16.10;100.00
20017;BME280;10169;42.664;23.610;2023-05-25T05:38:28;95377.94;;;16.15;100.00
20017;BME280;10169;42.664;23.610;2023-05-25T05:40:28;95373.97;;;16.03;100.00
20017;BME280;10169;42.664;23.610;2023-05-25T05:42:29;95373.41;;;16.11;100.00
20017;BME280;10169;42.664;23.610;2023-05-25T05:44:29;95371.78;;;16.15;100.00
20017;BME280;10169;42.664;23.610;2023-05-25T05:46:29;95370.41;;;16.27;100.00
20017;BME280;10169;42.664;23.610;2023-05-25T05:48:29;95369.47;;;16.72;100.00
20017;BME280;10169;42.664;23.610;2023-05-25T05:50:30;95367.72;;;16.96;100.00
20017;BME280;10169;42.664;23.610;2023-05-25T05:52:30;95371.84;;;17.22;100.00
20017;BME280;10169;42.664;23.610;2023-05-25T05:54:31;95367.34;;;17.57;100.00
20017;BME280;10169;42.664;23.610;2023-05-25T05:56:31;95369.63;;;17.34;100.00
20017;BME280;10169;42.664;23.610;2023-05-25T05:58:31;95368.19;;;17.47;100.00
20017;BME280;10169;42.664;23.610;2023-05-25T06:00:32;95370.66;;;17.38;100.00
20017;BME280;10169;42.664;23.610;2023-05-25T06:02:32;95363.41;;;17.39;100.00
20017;BME280;10169;42.664;23.610;2023-05-25T06:04:32;95372.75;;;17.47;100.00
20017;BME280;10169;42.664;23.610;2023-05-25T06:06:32;95378.94;;;17.81;100.00
20017;BME280;10169;42.664;23.610;2023-05-25T06:08:36;95375.84;;;17.97;100.00
20017;BME280;10169;42.664;23.610;2023-05-25T06:10:37;95374.47;;;18.00;100.00
20017;BME280;10169;42.664;23.610;2023-05-25T06:12:37;95381.25;;;17.92;100.00
20017;BME280;10169;42.664;23.610;2023-05-25T06:14:37;95387.59;;;18.06;100.00
20017;BME280;10169;42.664;23.610;2023-05-25T06:16:38;95382.91;;;18.41;100.00
20017;BME280;10169;42.664;23.610;2023-05-25T06:18:38;95387.63;;;18.77;100.00
20017;BME280;10169;42.664;23.610;2023-05-25T06:20:38;95391.22;;;18.68;100.00
20017;BME280;10169;42.664;23.610;2023-05-25T06:22:38;95385.28;;;18.71;100.00
20017;BME280;10169;42.664;23.610;2023-05-25T06:24:39;95390.91;;;18.51;100.00
20017;BME280;10169;42.664;23.610;2023-05-25T06:26:39;95393.09;;;18.44;100.00
20017;BME280;10169;42.664;23.610;2023-05-25T06:28:40;95393.97;;;18.63;100.00
20017;BME280;10169;42.664;23.610;2023-05-25T06:30:41;95388.84;;;18.66;100.00
20017;BME280;10169;42.664;23.610;2023-05-25T06:32:41;95378.44;;;18.78;100.00
20017;BME280;10169;42.664;23.610;2023-05-25T06:34:42;95381.78;;;18.70;100.00
20017;BME280;10169;42.664;23.610;2023-05-25T06:36:42;95373.56;;;18.62;100.00
20017;BME280;10169;42.664;23.610;2023-05-25T06:38:42;95382.59;;;18.47;100.00
20017;BME280;10169;42.664;23.610;2023-05-25T06:40:43;95381.59;;;18.38;100.00
20017;BME280;10169;42.664;23.610;2023-05-25T06:42:43;95385.47;;;18.27;100.00
20017;BME280;10169;42.664;23.610;2023-05-25T06:44:43;95387.22;;;18.65;100.00
20017;BME280;10169;42.664;23.610;2023-05-25T06:46:44;95383.91;;;18.50;100.00
20017;BME280;10169;42.664;23.610;2023-05-25T06:48:44;95382.63;;;18.42;100.00
20017;BME280;10169;42.664;23.610;2023-05-25T06:50:45;95382.53;;;18.00;100.00
20017;BME280;10169;42.664;23.610;2023-05-25T06:52:45;95387.53;;;18.11;100.00
20017;BME280;10169;42.664;23.610;2023-05-25T06:54:45;95386.44;;;18.36;100.00
20017;BME280;10169;42.664;23.610;2023-05-25T06:56:46;95392.59;;;18.65;100.00
20017;BME280;10169;42.664;23.610;2023-05-25T06:58:46;95396.97;;;19.04;100.00
20017;BME280;10169;42.664;23.610;2023-05-25T07:00:46;95394.41;;;19.55;100.00
20017;BME280;10169;42.664;23.610;2023-05-25T07:02:47;95396.91;;;19.83;100.00
20017;BME280;10169;42.664;23.610;2023-05-25T07:04:47;95388.59;;;19.80;100.00
20017;BME280;10169;42.664;23.610;2023-05-25T07:06:47;95388.28;;;20.13;100.00
20017;BME280;10169;42.664;23.610;2023-05-25T07:08:47;95381.75;;;20.47;100.00
20017;BME280;10169;42.664;23.610;2023-05-25T07:10:48;95376.66;;;20.86;100.00
20017;BME280;10169;42.664;23.610;2023-05-25T07:12:48;95374.75;;;21.14;100.00
20017;BME280;10169;42.664;23.610;2023-05-25T07:14:48;95380.25;;;21.09;100.00
20017;BME280;10169;42.664;23.610;2023-05-25T07:16:49;95375.16;;;21.07;100.00
20017;BME280;10169;42.664;23.610;2023-05-25T07:18:49;95376.31;;;21.01;100.00
20017;BME280;10169;42.664;23.610;2023-05-25T07:20:49;95366.56;;;20.64;100.00
20017;BME280;10169;42.664;23.610;2023-05-25T07:22:50;95362.66;;;20.70;100.00
20017;BME280;10169;42.664;23.610;2023-05-25T07:24:52;95376.47;;;20.82;100.00
20017;BME280;10169;42.664;23.610;2023-05-25T07:26:52;95376.56;;;20.91;100.00
20017;BME280;10169;42.664;23.610;2023-05-25T07:28:53;95377.97;;;20.75;100.00
20017;BME280;10169;42.664;23.610;2023-05-25T07:30:53;95379.38;;;20.59;100.00
20017;BME280;10169;42.664;23.610;2023-05-25T07:32:53;95381.75;;;20.60;100.00
20017;BME280;10169;42.664;23.610;2023-05-25T07:34:54;95395.16;;;20.52;100.00
20017;BME280;10169;42.664;23.610;2023-05-25T07:36:54;95397.06;;;20.38;100.00
20017;BME280;10169;42.664;23.610;2023-05-25T07:38:54;95399.06;;;20.13;100.00
20017;BME280;10169;42.664;23.610;2023-05-25T07:40:55;95399.03;;;20.00;100.00
20017;BME280;10169;42.664;23.610;2023-05-25T07:42:55;95399.22;;;19.90;100.00
20017;BME280;10169;42.664;23.610;2023-05-25T07:44:56;95399.31;;;19.66;100.00
20017;BME280;10169;42.664;23.610;2023-05-25T07:46:56;95397.28;;;19.77;100.00
20017;BME280;10169;42.664;23.610;2023-05-25T07:48:56;95402.94;;;19.75;100.00
20017;BME280;10169;42.664;23.610;2023-05-25T07:50:58;95403.88;;;19.52;100.00
20017;BME280;10169;42.664;23.610;2023-05-25T07:52:58;95409.00;;;19.11;100.00
20017;BME280;10169;42.664;23.610;2023-05-25T07:54:59;95404.25;;;18.85;100.00
20017;BME280;10169;42.664;23.610;2023-05-25T07:56:59;95416.44;;;18.77;100.00
20017;BME280;10169;42.664;23.610;2023-05-25T07:59:00;95408.72;;;18.70;100.00
20017;BME280;10169;42.664;23.610;2023-05-25T08:01:00;95405.69;;;18.53;100.00
20017;BME280;10169;42.664;23.610;2023-05-25T08:03:01;95405.75;;;18.43;100.00
20017;BME280;10169;42.664;23.610;2023-05-25T08:05:01;95409.56;;;18.42;100.00
20017;BME280;10169;42.664;23.610;2023-05-25T08:07:04;95416.66;;;18.33;100.00
20017;BME280;10169;42.664;23.610;2023-05-25T08:09:04;95416.34;;;18.35;100.00
20017;BME280;10169;42.664;23.610;2023-05-25T08:11:06;95411.94;;;18.49;100.00
20017;BME280;10169;42.664;23.610;2023-05-25T08:13:07;95412.81;;;18.63;100.00
20017;BME280;10169;42.664;23.610;2023-05-25T08:15:07;95411.06;;;18.53;100.00
20017;BME280;10169;42.664;23.610;2023-05-25T08:17:07;95414.31;;;18.50;100.00
20017;BME280;10169;42.664;23.610;2023-05-25T08:19:08;95415.88;;;18.56;100.00
20017;BME280;10169;42.664;23.610;2023-05-25T08:21:08;95421.72;;;18.63;100.00
20017;BME280;10169;42.664;23.610;2023-05-25T08:23:08;95415.31;;;18.59;100.00
20017;BME280;10169;42.664;23.610;2023-05-25T08:25:09;95409.72;;;18.74;100.00
20017;BME280;10169;42.664;23.610;2023-05-25T08:27:09;95403.81;;;18.96;100.00
20017;BME280;10169;42.664;23.610;2023-05-25T08:29:09;95406.84;;;19.32;100.00
20017;BME280;10169;42.664;23.610;2023-05-25T08:31:10;95403.31;;;19.13;100.00
20017;BME280;10169;42.664;23.610;2023-05-25T08:33:10;95405.31;;;19.44;100.00
20017;BME280;10169;42.664;23.610;2023-05-25T08:35:11;95408.81;;;19.96;100.00
20017;BME280;10169;42.664;23.610;2023-05-25T08:37:13;95400.19;;;20.12;100.00
20017;BME280;10169;42.664;23.610;2023-05-25T08:39:13;95400.09;;;19.85;100.00
20017;BME280;10169;42.664;23.610;2023-05-25T08:41:14;95402.25;;;20.34;100.00
20017;BME280;10169;42.664;23.610;2023-05-25T08:43:15;95397.47;;;20.58;100.00
20017;BME280;10169;42.664;23.610;2023-05-25T08:45:15;95409.13;;;21.35;100.00
20017;BME280;10169;42.664;23.610;2023-05-25T08:47:16;95406.38;;;21.13;100.00
20017;BME280;10169;42.664;23.610;2023-05-25T08:49:16;95404.66;;;20.90;100.00
20017;BME280;10169;42.664;23.610;2023-05-25T08:51:16;95403.09;;;20.75;100.00
20017;BME280;10169;42.664;23.610;2023-05-25T08:53:17;95419.41;;;20.24;100.00
20017;BME280;10169;42.664;23.610;2023-05-25T08:55:17;95426.00;;;20.00;100.00
20017;BME280;10169;42.664;23.610;2023-05-25T08:57:23;95426.66;;;19.60;100.00
20017;BME280;10169;42.664;23.610;2023-05-25T09:01:28;95433.72;;;19.74;100.00
20017;BME280;10169;42.664;23.610;2023-05-25T09:03:31;95433.16;;;19.91;100.00
20017;BME280;10169;42.664;23.610;2023-05-25T09:05:35;95439.22;;;20.01;100.00
20017;BME280;10169;42.664;23.610;2023-05-25T09:07:35;95439.19;;;19.50;100.00
20017;BME280;10169;42.664;23.610;2023-05-25T09:09:36;95441.00;;;19.55;100.00
20017;BME280;10169;42.664;23.610;2023-05-25T09:11:38;95446.22;;;19.28;100.00
20017;BME280;10169;42.664;23.610;2023-05-25T09:13:38;95438.84;;;18.96;100.00
20017;BME280;10169;42.664;23.610;2023-05-25T09:15:39;95442.41;;;18.92;100.00
20017;BME280;10169;42.664;23.610;2023-05-25T09:17:39;95436.31;;;18.57;100.00
20017;BME280;10169;42.664;23.610;2023-05-25T09:19:40;95442.50;;;18.81;100.00
20017;BME280;10169;42.664;23.610;2023-05-25T09:21:41;95432.09;;;18.75;100.00
20017;BME280;10169;42.664;23.610;2023-05-25T09:23:42;95421.38;;;18.41;100.00
20017;BME280;10169;42.664;23.610;2023-05-25T09:25:43;95422.59;;;18.30;100.00
20017;BME280;10169;42.664;23.610;2023-05-25T09:27:45;95430.22;;;18.18;100.00
20017;BME280;10169;42.664;23.610;2023-05-25T09:29:46;95411.81;;;18.30;100.00
20017;BME280;10169;42.664;23.610;2023-05-25T09:31:46;95411.25;;;18.33;100.00
20017;BME280;10169;42.664;23.610;2023-05-25T09:33:46;95419.81;;;18.40;100.00
20017;BME280;10169;42.664;23.610;2023-05-25T09:35:47;95422.34;;;18.55;100.00
20017;BME280;10169;42.664;23.610;2023-05-25T09:37:47;95417.09;;;18.40;100.00
20017;BME280;10169;42.664;23.610;2023-05-25T09:39:49;95408.72;;;18.47;100.00
20017;BME280;10169;42.664;23.610;2023-05-25T09:41:50;95411.19;;;18.38;100.00
20017;BME280;10169;42.664;23.610;2023-05-25T09:43:50;95410.84;;;18.21;100.00
20017;BME280;10169;42.664;23.610;2023-05-25T09:45:51;95406.72;;;18.29;100.00
20017;BME280;10169;42.664;23.610;2023-05-25T09:47:55;95407.41;;;18.39;100.00
20017;BME280;10169;42.664;23.610;2023-05-25T09:49:55;95406.84;;;18.42;100.00
20017;BME280;10169;42.664;23.610;2023-05-25T09:51:56;95407.72;;;18.38;100.00
20017;BME280;10169;42.664;23.610;2023-05-25T09:53:56;95409.97;;;18.54;100.00
20017;BME280;10169;42.664;23.610;2023-05-25T09:55:56;95404.38;;;18.51;100.00
20017;BME280;10169;42.664;23.610;2023-05-25T09:57:57;95406.84;;;18.42;100.00
20017;BME280;10169;42.664;23.610;2023-05-25T09:59:57;95404.38;;;18.51;100.00
20017;BME280;10169;42.664;23.610;2023-05-25T10:01:57;95401.84;;;18.59;100.00
20017;BME280;10169;42.664;23.610;2023-05-25T10:03:59;95402.88;;;18.63;100.00
20017;BME280;10169;42.664;23.610;2023-05-25T10:06:00;95392.69;;;18.60;100.00
20017;BME280;10169;42.664;23.610;2023-05-25T10:08:02;95391.84;;;18.65;100.00
20017;BME280;10169;42.664;23.610;2023-05-25T10:10:04;95394.94;;;18.53;100.00
20017;BME280;10169;42.664;23.610;2023-05-25T10:12:06;95398.63;;;18.57;100.00
20017;BME280;10169;42.664;23.610;2023-05-25T10:14:06;95389.66;;;18.67;100.00
20017;BME280;10169;42.664;23.610;2023-05-25T10:16:08;95387.63;;;18.54;100.00
20017;BME280;10169;42.664;23.610;2023-05-25T10:18:12;95386.09;;;18.71;100.00
20017;BME280;10169;42.664;23.610;2023-05-25T10:20:13;95379.44;;;18.64;100.00
20017;BME280;10169;42.664;23.610;2023-05-25T10:22:15;95389.47;;;18.58;100.00
20017;BME280;10169;42.664;23.610;2023-05-25T10:24:34;95375.44;;;18.38;100.00
20017;BME280;10169;42.664;23.610;2023-05-25T10:26:39;95389.75;;;18.57;100.00